sensor_id;sensor_type;location;lat;lon;timestamp;P1;durP1;ratioP1;P2;durP2;ratioP2
48945;SDS011;34999;50.940;3.998;2022-11-15T00:01:24;41.33;;;23.07;;
48945;SDS011;34999;50.940;3.998;2022-11-15T00:03:54;46.40;;;23.87;;
48945;SDS011;34999;50.940;3.998;2022-11-15T00:06:22;37.00;;;22.27;;
48945;SDS011;34999;50.940;3.998;2022-11-15T00:08:51;42.70;;;23.07;;
48945;SDS011;34999;50.940;3.998;2022-11-15T00:11:19;35.90;;;22.40;;
48945;SDS011;34999;50.940;3.998;2022-11-15T00:13:47;40.73;;;22.97;;
48945;SDS011;34999;50.940;3.998;2022-11-15T00:16:15;43.97;;;24.20;;
48945;SDS011;34999;50.940;3.998;2022-11-15T00:18:44;39.47;;;22.47;;
48945;SDS011;34999;50.940;3.998;2022-11-15T00:21:17;37.03;;;21.87;;
48945;SDS011;34999;50.940;3.998;2022-11-15T00:23:46;39.73;;;22.13;;
48945;SDS011;34999;50.940;3.998;2022-11-15T00:26:14;39.17;;;22.97;;
48945;SDS011;34999;50.940;3.998;2022-11-15T00:28:43;36.97;;;21.73;;
48945;SDS011;34999;50.940;3.998;2022-11-15T00:31:12;35.97;;;22.20;;
48945;SDS011;34999;50.940;3.998;2022-11-15T00:33:42;34.47;;;20.00;;
48945;SDS011;34999;50.940;3.998;2022-11-15T00:36:12;35.90;;;22.23;;
48945;SDS011;34999;50.940;3.998;2022-11-15T00:38:42;32.60;;;21.27;;
48945;SDS011;34999;50.940;3.998;2022-11-15T00:41:10;34.03;;;20.83;;
48945;SDS011;34999;50.940;3.998;2022-11-15T00:43:38;36.27;;;20.77;;
48945;SDS011;34999;50.940;3.998;2022-11-15T00:46:10;34.40;;;20.93;;
48945;SDS011;34999;50.940;3.998;2022-11-15T00:48:38;36.63;;;21.00;;
48945;SDS011;34999;50.940;3.998;2022-11-15T00:51:06;32.47;;;20.17;;
48945;SDS011;34999;50.940;3.998;2022-11-15T00:53:34;36.63;;;20.67;;
48945;SDS011;34999;50.940;3.998;2022-11-15T00:56:04;31.30;;;20.67;;
48945;SDS011;34999;50.940;3.998;2022-11-15T00:58:33;33.63;;;20.73;;
48945;SDS011;34999;50.940;3.998;2022-11-15T01:01:08;31.07;;;20.33;;
48945;SDS011;34999;50.940;3.998;2022-11-15T01:03:38;34.10;;;20.40;;
48945;SDS011;34999;50.940;3.998;2022-11-15T01:06:08;33.03;;;20.93;;
48945;SDS011;34999;50.940;3.998;2022-11-15T01:08:36;31.63;;;19.70;;
48945;SDS011;34999;50.940;3.998;2022-11-15T01:11:08;30.93;;;20.80;;
48945;SDS011;34999;50.940;3.998;2022-11-15T01:13:38;34.00;;;19.70;;
48945;SDS011;34999;50.940;3.998;2022-11-15T01:16:08;31.63;;;19.50;;
48945;SDS011;34999;50.940;3.998;2022-11-15T01:18:38;31.43;;;18.53;;
48945;SDS011;34999;50.940;3.998;2022-11-15T01:21:07;30.07;;;18.50;;
48945;SDS011;34999;50.940;3.998;2022-11-15T01:23:36;33.30;;;18.73;;
48945;SDS011;34999;50.940;3.998;2022-11-15T01:26:08;35.60;;;19.87;;
48945;SDS011;34999;50.940;3.998;2022-11-15T01:28:39;31.23;;;19.17;;
48945;SDS011;34999;50.940;3.998;2022-11-15T01:31:09;28.70;;;18.90;;
48945;SDS011;34999;50.940;3.998;2022-11-15T01:33:40;31.40;;;19.67;;
48945;SDS011;34999;50.940;3.998;2022-11-15T01:36:10;32.13;;;19.17;;
48945;SDS011;34999;50.940;3.998;2022-11-15T01:38:40;36.30;;;20.83;;
48945;SDS011;34999;50.940;3.998;2022-11-15T01:41:14;29.97;;;19.30;;
48945;SDS011;34999;50.940;3.998;2022-11-15T01:43:46;31.77;;;20.03;;
48945;SDS011;34999;50.940;3.998;2022-11-15T01:46:19;33.87;;;20.07;;
48945;SDS011;34999;50.940;3.998;2022-11-15T01:48:52;30.90;;;19.13;;
48945;SDS011;34999;50.940;3.998;2022-11-15T01:51:23;31.33;;;18.67;;
48945;SDS011;34999;50.940;3.998;2022-11-15T01:53:54;33.03;;;19.87;;
48945;SDS011;34999;50.940;3.998;2022-11-15T01:56:27;34.63;;;20.00;;
48945;SDS011;34999;50.940;3.998;2022-11-15T01:58:58;36.90;;;20.83;;
48945;SDS011;34999;50.940;3.998;2022-11-15T02:01:29;35.20;;;19.60;;
48945;SDS011;34999;50.940;3.998;2022-11-15T02:04:00;29.47;;;19.30;;
48945;SDS011;34999;50.940;3.998;2022-11-15T02:06:34;27.77;;;17.83;;
48945;SDS011;34999;50.940;3.998;2022-11-15T02:09:03;28.80;;;18.17;;
48945;SDS011;34999;50.940;3.998;2022-11-15T02:11:32;33.40;;;19.13;;
48945;SDS011;34999;50.940;3.998;2022-11-15T02:14:01;34.10;;;18.50;;
48945;SDS011;34999;50.940;3.998;2022-11-15T02:16:34;32.03;;;18.57;;
48945;SDS011;34999;50.940;3.998;2022-11-15T02:19:13;29.37;;;17.47;;
48945;SDS011;34999;50.940;3.998;2022-11-15T02:21:59;33.97;;;17.83;;
48945;SDS011;34999;50.940;3.998;2022-11-15T02:24:48;29.20;;;18.00;;
48945;SDS011;34999;50.940;3.998;2022-11-15T02:27:31;26.47;;;17.83;;
48945;SDS011;34999;50.940;3.998;2022-11-15T02:30:26;27.83;;;16.93;;
48945;SDS011;34999;50.940;3.998;2022-11-15T02:33:01;28.77;;;17.40;;
48945;SDS011;34999;50.940;3.998;2022-11-15T02:35:41;30.73;;;17.47;;
48945;SDS011;34999;50.940;3.998;2022-11-15T02:38:17;27.03;;;16.73;;
48945;SDS011;34999;50.940;3.998;2022-11-15T02:40:53;30.63;;;16.60;;
48945;SDS011;34999;50.940;3.998;2022-11-15T02:43:27;33.17;;;16.60;;
48945;SDS011;34999;50.940;3.998;2022-11-15T02:46:19;28.60;;;16.27;;
48945;SDS011;34999;50.940;3.998;2022-11-15T02:49:12;31.47;;;16.10;;
48945;SDS011;34999;50.940;3.998;2022-11-15T02:51:45;24.60;;;15.17;;
48945;SDS011;34999;50.940;3.998;2022-11-15T02:54:17;26.70;;;16.57;;
48945;SDS011;34999;50.940;3.998;2022-11-15T02:56:48;29.57;;;15.07;;
48945;SDS011;34999;50.940;3.998;2022-11-15T02:59:23;26.43;;;15.67;;
48945;SDS011;34999;50.940;3.998;2022-11-15T03:02:06;24.43;;;14.93;;
48945;SDS011;34999;50.940;3.998;2022-11-15T03:04:51;26.03;;;15.20;;
48945;SDS011;34999;50.940;3.998;2022-11-15T03:07:24;25.60;;;14.50;;
48945;SDS011;34999;50.940;3.998;2022-11-15T03:09:59;24.03;;;13.87;;
48945;SDS011;34999;50.940;3.998;2022-11-15T03:12:34;25.90;;;14.10;;
48945;SDS011;34999;50.940;3.998;2022-11-15T03:15:08;21.87;;;12.83;;
48945;SDS011;34999;50.940;3.998;2022-11-15T03:17:42;22.80;;;13.60;;
48945;SDS011;34999;50.940;3.998;2022-11-15T03:20:16;27.33;;;14.23;;
48945;SDS011;34999;50.940;3.998;2022-11-15T03:22:46;25.87;;;12.97;;
48945;SDS011;34999;50.940;3.998;2022-11-15T03:25:17;26.23;;;14.40;;
48945;SDS011;34999;50.940;3.998;2022-11-15T03:27:51;29.30;;;14.00;;
48945;SDS011;34999;50.940;3.998;2022-11-15T03:30:22;21.57;;;13.37;;
48945;SDS011;34999;50.940;3.998;2022-11-15T03:32:54;20.73;;;12.43;;
48945;SDS011;34999;50.940;3.998;2022-11-15T03:35:24;22.90;;;12.63;;
48945;SDS011;34999;50.940;3.998;2022-11-15T03:37:57;22.27;;;12.60;;
48945;SDS011;34999;50.940;3.998;2022-11-15T03:40:34;18.30;;;12.20;;
48945;SDS011;34999;50.940;3.998;2022-11-15T03:43:07;17.60;;;12.23;;
48945;SDS011;34999;50.940;3.998;2022-11-15T03:45:43;20.10;;;12.37;;
48945;SDS011;34999;50.940;3.998;2022-11-15T03:48:18;19.87;;;11.33;;
48945;SDS011;34999;50.940;3.998;2022-11-15T03:50:50;20.37;;;11.07;;
48945;SDS011;34999;50.940;3.998;2022-11-15T03:53:19;17.13;;;10.43;;
48945;SDS011;34999;50.940;3.998;2022-11-15T03:55:47;19.43;;;10.63;;
48945;SDS011;34999;50.940;3.998;2022-11-15T03:58:15;16.20;;;10.70;;
48945;SDS011;34999;50.940;3.998;2022-11-15T04:00:44;18.00;;;9.70;;
48945;SDS011;34999;50.940;3.998;2022-11-15T04:03:12;16.57;;;9.43;;
48945;SDS011;34999;50.940;3.998;2022-11-15T04:05:42;16.93;;;9.50;;
48945;SDS011;34999;50.940;3.998;2022-11-15T04:08:11;20.23;;;9.90;;
48945;SDS011;34999;50.940;3.998;2022-11-15T04:10:39;18.20;;;10.20;;
48945;SDS011;34999;50.940;3.998;2022-11-15T04:13:07;16.73;;;9.40;;
48945;SDS011;34999;50.940;3.998;2022-11-15T04:15:36;13.50;;;9.27;;
48945;SDS011;34999;50.940;3.998;2022-11-15T04:18:04;15.43;;;9.70;;
48945;SDS011;34999;50.940;3.998;2022-11-15T04:20:33;12.77;;;8.57;;
48945;SDS011;34999;50.940;3.998;2022-11-15T04:23:22;14.80;;;8.83;;
48945;SDS011;34999;50.940;3.998;2022-11-15T04:26:08;12.83;;;8.00;;
48945;SDS011;34999;50.940;3.998;2022-11-15T04:28:39;16.30;;;8.20;;
48945;SDS011;34999;50.940;3.998;2022-11-15T04:31:27;11.03;;;8.13;;
48945;SDS011;34999;50.940;3.998;2022-11-15T04:33:57;15.77;;;8.60;;
48945;SDS011;34999;50.940;3.998;2022-11-15T04:36:25;14.07;;;7.80;;
48945;SDS011;34999;50.940;3.998;2022-11-15T04:39:13;16.17;;;8.20;;
48945;SDS011;34999;50.940;3.998;2022-11-15T04:41:41;12.90;;;7.63;;
48945;SDS011;34999;50.940;3.998;2022-11-15T04:44:09;15.47;;;8.00;;
48945;SDS011;34999;50.940;3.998;2022-11-15T04:46:37;16.00;;;8.50;;
48945;SDS011;34999;50.940;3.998;2022-11-15T04:49:06;12.93;;;7.70;;
48945;SDS011;34999;50.940;3.998;2022-11-15T04:51:34;12.77;;;7.50;;
48945;SDS011;34999;50.940;3.998;2022-11-15T04:54:02;13.03;;;7.73;;
48945;SDS011;34999;50.940;3.998;2022-11-15T04:56:32;9.93;;;7.40;;
48945;SDS011;34999;50.940;3.998;2022-11-15T04:59:00;14.60;;;7.07;;
48945;SDS011;34999;50.940;3.998;2022-11-15T05:01:29;11.43;;;7.03;;
48945;SDS011;34999;50.940;3.998;2022-11-15T05:03:57;10.77;;;6.50;;
48945;SDS011;34999;50.940;3.998;2022-11-15T05:06:43;11.57;;;6.70;;
48945;SDS011;34999;50.940;3.998;2022-11-15T05:09:11;11.60;;;6.47;;
48945;SDS011;34999;50.940;3.998;2022-11-15T05:11:41;13.20;;;6.67;;
48945;SDS011;34999;50.940;3.998;2022-11-15T05:14:11;13.63;;;7.23;;
48945;SDS011;34999;50.940;3.998;2022-11-15T05:16:39;17.77;;;7.13;;
48945;SDS011;34999;50.940;3.998;2022-11-15T05:19:08;12.80;;;6.10;;
48945;SDS011;34999;50.940;3.998;2022-11-15T05:21:37;10.63;;;6.70;;
48945;SDS011;34999;50.940;3.998;2022-11-15T05:24:05;10.33;;;6.07;;
48945;SDS011;34999;50.940;3.998;2022-11-15T05:26:36;10.73;;;5.97;;
48945;SDS011;34999;50.940;3.998;2022-11-15T05:29:06;9.83;;;5.70;;
48945;SDS011;34999;50.940;3.998;2022-11-15T05:31:38;12.30;;;5.60;;
48945;SDS011;34999;50.940;3.998;2022-11-15T05:34:08;10.73;;;5.70;;
48945;SDS011;34999;50.940;3.998;2022-11-15T05:36:37;10.33;;;5.37;;
48945;SDS011;34999;50.940;3.998;2022-11-15T05:39:08;8.30;;;5.07;;
48945;SDS011;34999;50.940;3.998;2022-11-15T05:41:37;9.73;;;5.70;;
48945;SDS011;34999;50.940;3.998;2022-11-15T05:44:11;5.33;;;4.80;;
48945;SDS011;34999;50.940;3.998;2022-11-15T05:46:42;7.17;;;4.97;;
48945;SDS011;34999;50.940;3.998;2022-11-15T05:49:13;6.40;;;5.07;;
48945;SDS011;34999;50.940;3.998;2022-11-15T05:51:44;7.70;;;5.33;;
48945;SDS011;34999;50.940;3.998;2022-11-15T05:54:16;7.30;;;5.20;;
48945;SDS011;34999;50.940;3.998;2022-11-15T05:56:45;7.77;;;4.53;;
48945;SDS011;34999;50.940;3.998;2022-11-15T05:59:14;10.27;;;5.07;;
48945;SDS011;34999;50.940;3.998;2022-11-15T06:01:44;9.93;;;4.90;;
48945;SDS011;34999;50.940;3.998;2022-11-15T06:04:12;8.87;;;5.27;;
48945;SDS011;34999;50.940;3.998;2022-11-15T06:06:40;8.60;;;5.13;;
48945;SDS011;34999;50.940;3.998;2022-11-15T06:09:09;10.43;;;5.53;;
48945;SDS011;34999;50.940;3.998;2022-11-15T06:11:37;6.63;;;4.93;;
48945;SDS011;34999;50.940;3.998;2022-11-15T06:14:05;7.17;;;5.33;;
48945;SDS011;34999;50.940;3.998;2022-11-15T06:16:35;6.37;;;5.47;;
48945;SDS011;34999;50.940;3.998;2022-11-15T06:19:05;8.70;;;5.13;;
48945;SDS011;34999;50.940;3.998;2022-11-15T06:21:34;9.00;;;5.20;;
48945;SDS011;34999;50.940;3.998;2022-11-15T06:24:03;6.37;;;5.10;;
48945;SDS011;34999;50.940;3.998;2022-11-15T06:26:32;8.37;;;4.93;;
48945;SDS011;34999;50.940;3.998;2022-11-15T06:29:02;9.70;;;5.40;;
48945;SDS011;34999;50.940;3.998;2022-11-15T06:31:31;7.20;;;5.17;;
48945;SDS011;34999;50.940;3.998;2022-11-15T06:34:01;11.13;;;5.00;;
48945;SDS011;34999;50.940;3.998;2022-11-15T06:36:30;8.40;;;5.40;;
48945;SDS011;34999;50.940;3.998;2022-11-15T06:38:58;7.23;;;5.80;;
48945;SDS011;34999;50.940;3.998;2022-11-15T06:41:26;13.27;;;6.00;;
48945;SDS011;34999;50.940;3.998;2022-11-15T06:43:56;11.73;;;5.40;;
48945;SDS011;34999;50.940;3.998;2022-11-15T06:46:27;13.43;;;5.60;;
48945;SDS011;34999;50.940;3.998;2022-11-15T06:48:56;6.97;;;5.13;;
48945;SDS011;34999;50.940;3.998;2022-11-15T06:51:25;13.97;;;5.43;;
48945;SDS011;34999;50.940;3.998;2022-11-15T06:53:54;8.27;;;5.70;;
48945;SDS011;34999;50.940;3.998;2022-11-15T06:56:22;10.57;;;6.10;;
48945;SDS011;34999;50.940;3.998;2022-11-15T06:58:50;9.77;;;5.90;;
48945;SDS011;34999;50.940;3.998;2022-11-15T07:01:19;9.87;;;6.20;;
48945;SDS011;34999;50.940;3.998;2022-11-15T07:03:47;9.70;;;6.40;;
48945;SDS011;34999;50.940;3.998;2022-11-15T07:06:15;11.60;;;6.63;;
48945;SDS011;34999;50.940;3.998;2022-11-15T07:08:45;8.27;;;5.57;;
48945;SDS011;34999;50.940;3.998;2022-11-15T07:11:13;10.43;;;5.80;;
48945;SDS011;34999;50.940;3.998;2022-11-15T07:13:42;8.27;;;5.80;;
48945;SDS011;34999;50.940;3.998;2022-11-15T07:16:11;10.00;;;5.97;;
48945;SDS011;34999;50.940;3.998;2022-11-15T07:18:40;10.57;;;6.27;;
48945;SDS011;34999;50.940;3.998;2022-11-15T07:21:09;12.53;;;7.10;;
48945;SDS011;34999;50.940;3.998;2022-11-15T07:23:41;12.10;;;7.23;;
48945;SDS011;34999;50.940;3.998;2022-11-15T07:26:10;10.10;;;7.17;;
48945;SDS011;34999;50.940;3.998;2022-11-15T07:28:39;11.73;;;7.60;;
48945;SDS011;34999;50.940;3.998;2022-11-15T07:31:08;13.63;;;7.23;;
48945;SDS011;34999;50.940;3.998;2022-11-15T07:33:36;12.77;;;6.73;;
48945;SDS011;34999;50.940;3.998;2022-11-15T07:36:05;9.23;;;6.90;;
48945;SDS011;34999;50.940;3.998;2022-11-15T07:38:35;17.20;;;8.07;;
48945;SDS011;34999;50.940;3.998;2022-11-15T07:41:08;10.23;;;7.57;;
48945;SDS011;34999;50.940;3.998;2022-11-15T07:43:38;12.80;;;7.87;;
48945;SDS011;34999;50.940;3.998;2022-11-15T07:46:07;13.57;;;7.77;;
48945;SDS011;34999;50.940;3.998;2022-11-15T07:48:36;14.43;;;7.93;;
48945;SDS011;34999;50.940;3.998;2022-11-15T07:51:11;11.87;;;7.13;;
48945;SDS011;34999;50.940;3.998;2022-11-15T07:53:40;13.20;;;7.30;;
48945;SDS011;34999;50.940;3.998;2022-11-15T07:56:11;13.47;;;6.77;;
48945;SDS011;34999;50.940;3.998;2022-11-15T07:58:40;17.37;;;6.77;;
48945;SDS011;34999;50.940;3.998;2022-11-15T08:01:09;8.90;;;6.00;;
48945;SDS011;34999;50.940;3.998;2022-11-15T08:03:40;13.47;;;5.53;;
48945;SDS011;34999;50.940;3.998;2022-11-15T08:06:09;11.40;;;5.37;;
48945;SDS011;34999;50.940;3.998;2022-11-15T08:08:37;7.40;;;4.63;;
48945;SDS011;34999;50.940;3.998;2022-11-15T08:11:06;8.53;;;4.43;;
48945;SDS011;34999;50.940;3.998;2022-11-15T08:13:35;4.23;;;3.90;;
48945;SDS011;34999;50.940;3.998;2022-11-15T08:16:03;4.13;;;3.83;;
48945;SDS011;34999;50.940;3.998;2022-11-15T08:18:32;8.63;;;3.97;;
48945;SDS011;34999;50.940;3.998;2022-11-15T08:21:01;3.73;;;3.53;;
48945;SDS011;34999;50.940;3.998;2022-11-15T08:23:30;4.07;;;3.53;;
48945;SDS011;34999;50.940;3.998;2022-11-15T08:26:00;6.07;;;3.50;;
48945;SDS011;34999;50.940;3.998;2022-11-15T08:28:29;6.93;;;3.50;;
48945;SDS011;34999;50.940;3.998;2022-11-15T08:30:59;9.23;;;3.33;;
48945;SDS011;34999;50.940;3.998;2022-11-15T08:33:27;7.30;;;3.73;;
48945;SDS011;34999;50.940;3.998;2022-11-15T08:35:57;6.63;;;3.13;;
48945;SDS011;34999;50.940;3.998;2022-11-15T08:38:25;7.53;;;3.20;;
48945;SDS011;34999;50.940;3.998;2022-11-15T08:41:04;5.70;;;3.30;;
48945;SDS011;34999;50.940;3.998;2022-11-15T08:43:32;4.27;;;2.80;;
48945;SDS011;34999;50.940;3.998;2022-11-15T08:46:02;5.57;;;2.80;;
48945;SDS011;34999;50.940;3.998;2022-11-15T08:48:31;6.90;;;2.63;;
48945;SDS011;34999;50.940;3.998;2022-11-15T08:51:00;6.97;;;2.93;;
48945;SDS011;34999;50.940;3.998;2022-11-15T08:53:28;11.57;;;3.40;;
48945;SDS011;34999;50.940;3.998;2022-11-15T08:55:57;5.83;;;2.80;;
48945;SDS011;34999;50.940;3.998;2022-11-15T08:58:25;5.07;;;2.70;;
48945;SDS011;34999;50.940;3.998;2022-11-15T09:00:54;6.10;;;2.60;;
48945;SDS011;34999;50.940;3.998;2022-11-15T09:03:24;3.00;;;2.47;;
48945;SDS011;34999;50.940;3.998;2022-11-15T09:05:54;3.10;;;2.30;;
48945;SDS011;34999;50.940;3.998;2022-11-15T09:08:23;5.33;;;2.07;;
48945;SDS011;34999;50.940;3.998;2022-11-15T09:11:12;4.53;;;2.23;;
48945;SDS011;34999;50.940;3.998;2022-11-15T09:13:41;5.67;;;2.20;;
48945;SDS011;34999;50.940;3.998;2022-11-15T09:16:09;6.73;;;2.10;;
48945;SDS011;34999;50.940;3.998;2022-11-15T09:18:39;7.67;;;2.53;;
48945;SDS011;34999;50.940;3.998;2022-11-15T09:21:08;4.57;;;1.97;;
48945;SDS011;34999;50.940;3.998;2022-11-15T09:23:37;4.53;;;2.10;;
48945;SDS011;34999;50.940;3.998;2022-11-15T09:26:08;6.43;;;2.30;;
48945;SDS011;34999;50.940;3.998;2022-11-15T09:28:36;7.60;;;2.30;;
48945;SDS011;34999;50.940;3.998;2022-11-15T09:31:08;4.67;;;2.00;;
48945;SDS011;34999;50.940;3.998;2022-11-15T09:33:36;10.57;;;2.33;;
48945;SDS011;34999;50.940;3.998;2022-11-15T09:36:07;3.77;;;2.03;;
48945;SDS011;34999;50.940;3.998;2022-11-15T09:38:37;6.33;;;1.80;;
48945;SDS011;34999;50.940;3.998;2022-11-15T09:41:15;4.50;;;1.87;;
48945;SDS011;34999;50.940;3.998;2022-11-15T09:44:16;6.33;;;2.07;;
48945;SDS011;34999;50.940;3.998;2022-11-15T09:47:02;5.80;;;2.33;;
48945;SDS011;34999;50.940;3.998;2022-11-15T09:49:36;4.60;;;2.33;;
48945;SDS011;34999;50.940;3.998;2022-11-15T09:52:07;6.40;;;2.23;;
48945;SDS011;34999;50.940;3.998;2022-11-15T09:54:39;8.03;;;2.40;;
48945;SDS011;34999;50.940;3.998;2022-11-15T09:57:20;8.63;;;2.43;;
48945;SDS011;34999;50.940;3.998;2022-11-15T09:59:58;6.67;;;2.37;;
48945;SDS011;34999;50.940;3.998;2022-11-15T10:03:03;7.60;;;2.30;;
48945;SDS011;34999;50.940;3.998;2022-11-15T10:05:38;6.97;;;2.00;;
48945;SDS011;34999;50.940;3.998;2022-11-15T10:08:16;8.23;;;2.40;;
48945;SDS011;34999;50.940;3.998;2022-11-15T10:10:56;8.97;;;2.73;;
48945;SDS011;34999;50.940;3.998;2022-11-15T10:13:46;6.60;;;2.70;;
48945;SDS011;34999;50.940;3.998;2022-11-15T10:16:24;6.67;;;2.07;;
48945;SDS011;34999;50.940;3.998;2022-11-15T10:19:13;9.27;;;2.00;;
48945;SDS011;34999;50.940;3.998;2022-11-15T10:21:49;7.30;;;2.30;;
48945;SDS011;34999;50.940;3.998;2022-11-15T10:24:27;7.10;;;2.00;;
48945;SDS011;34999;50.940;3.998;2022-11-15T10:26:56;6.50;;;2.17;;
48945;SDS011;34999;50.940;3.998;2022-11-15T10:29:24;4.40;;;1.80;;
48945;SDS011;34999;50.940;3.998;2022-11-15T10:31:53;7.13;;;1.87;;
48945;SDS011;34999;50.940;3.998;2022-11-15T10:34:22;10.53;;;2.30;;
48945;SDS011;34999;50.940;3.998;2022-11-15T10:36:54;6.83;;;2.50;;
48945;SDS011;34999;50.940;3.998;2022-11-15T10:39:25;5.13;;;2.23;;
48945;SDS011;34999;50.940;3.998;2022-11-15T10:41:54;6.13;;;2.07;;
48945;SDS011;34999;50.940;3.998;2022-11-15T10:44:24;7.70;;;2.13;;
48945;SDS011;34999;50.940;3.998;2022-11-15T10:47:04;9.17;;;2.33;;
48945;SDS011;34999;50.940;3.998;2022-11-15T10:49:52;9.27;;;2.10;;
48945;SDS011;34999;50.940;3.998;2022-11-15T10:52:33;4.60;;;1.90;;
48945;SDS011;34999;50.940;3.998;2022-11-15T10:55:17;6.80;;;2.07;;
48945;SDS011;34999;50.940;3.998;2022-11-15T10:57:51;4.13;;;1.83;;
48945;SDS011;34999;50.940;3.998;2022-11-15T11:00:29;5.27;;;1.77;;
48945;SDS011;34999;50.940;3.998;2022-11-15T11:03:08;8.07;;;1.80;;
48945;SDS011;34999;50.940;3.998;2022-11-15T11:06:06;5.23;;;2.10;;
48945;SDS011;34999;50.940;3.998;2022-11-15T11:08:36;3.37;;;1.73;;
48945;SDS011;34999;50.940;3.998;2022-11-15T11:11:06;7.50;;;2.07;;
48945;SDS011;34999;50.940;3.998;2022-11-15T11:13:37;5.10;;;1.87;;
48945;SDS011;34999;50.940;3.998;2022-11-15T11:19:14;5.80;;;2.13;;
48945;SDS011;34999;50.940;3.998;2022-11-15T11:22:04;5.23;;;1.70;;
48945;SDS011;34999;50.940;3.998;2022-11-15T11:24:40;6.33;;;1.83;;
48945;SDS011;34999;50.940;3.998;2022-11-15T11:27:18;7.73;;;2.10;;
48945;SDS011;34999;50.940;3.998;2022-11-15T11:29:57;5.53;;;1.57;;
48945;SDS011;34999;50.940;3.998;2022-11-15T11:32:40;4.93;;;1.90;;
48945;SDS011;34999;50.940;3.998;2022-11-15T11:35:23;6.07;;;1.60;;
48945;SDS011;34999;50.940;3.998;2022-11-15T11:37:59;3.60;;;1.53;;
48945;SDS011;34999;50.940;3.998;2022-11-15T11:40:43;2.63;;;1.80;;
48945;SDS011;34999;50.940;3.998;2022-11-15T11:43:23;7.87;;;2.03;;
48945;SDS011;34999;50.940;3.998;2022-11-15T11:46:04;2.43;;;1.60;;
48945;SDS011;34999;50.940;3.998;2022-11-15T11:48:43;8.93;;;1.77;;
48945;SDS011;34999;50.940;3.998;2022-11-15T11:51:16;4.43;;;1.70;;
48945;SDS011;34999;50.940;3.998;2022-11-15T11:53:49;6.73;;;2.03;;
48945;SDS011;34999;50.940;3.998;2022-11-15T11:56:24;4.93;;;1.93;;
48945;SDS011;34999;50.940;3.998;2022-11-15T11:58:57;3.23;;;1.70;;
48945;SDS011;34999;50.940;3.998;2022-11-15T12:01:32;5.43;;;1.80;;
48945;SDS011;34999;50.940;3.998;2022-11-15T12:04:05;10.10;;;5.00;;
48945;SDS011;34999;50.940;3.998;2022-11-15T12:06:41;10.47;;;2.00;;
48945;SDS011;34999;50.940;3.998;2022-11-15T12:09:15;5.03;;;2.63;;
48945;SDS011;34999;50.940;3.998;2022-11-15T12:11:50;3.67;;;1.90;;
48945;SDS011;34999;50.940;3.998;2022-11-15T12:14:31;5.30;;;2.00;;
48945;SDS011;34999;50.940;3.998;2022-11-15T12:17:04;3.80;;;2.30;;
48945;SDS011;34999;50.940;3.998;2022-11-15T12:19:33;4.70;;;2.50;;
48945;SDS011;34999;50.940;3.998;2022-11-15T12:22:03;5.80;;;2.63;;
48945;SDS011;34999;50.940;3.998;2022-11-15T12:24:37;6.43;;;2.47;;
48945;SDS011;34999;50.940;3.998;2022-11-15T12:27:12;5.60;;;2.20;;
48945;SDS011;34999;50.940;3.998;2022-11-15T12:29:54;5.40;;;1.83;;
48945;SDS011;34999;50.940;3.998;2022-11-15T12:32:26;4.57;;;2.40;;
48945;SDS011;34999;50.940;3.998;2022-11-15T12:34:57;7.27;;;2.43;;
48945;SDS011;34999;50.940;3.998;2022-11-15T12:40:35;10.57;;;5.27;;
48945;SDS011;34999;50.940;3.998;2022-11-15T12:46:05;6.57;;;1.80;;
48945;SDS011;34999;50.940;3.998;2022-11-15T12:57:36;4.13;;;2.47;;
48945;SDS011;34999;50.940;3.998;2022-11-15T13:03:16;3.70;;;1.87;;
48945;SDS011;34999;50.940;3.998;2022-11-15T13:06:00;2.40;;;1.60;;
48945;SDS011;34999;50.940;3.998;2022-11-15T13:08:43;4.50;;;1.93;;
48945;SDS011;34999;50.940;3.998;2022-11-15T13:17:22;14.20;;;5.23;;
48945;SDS011;34999;50.940;3.998;2022-11-15T13:22:50;3.13;;;2.67;;
48945;SDS011;34999;50.940;3.998;2022-11-15T13:25:27;3.90;;;2.00;;
48945;SDS011;34999;50.940;3.998;2022-11-15T13:28:18;3.30;;;2.20;;
48945;SDS011;34999;50.940;3.998;2022-11-15T13:30:51;2.07;;;1.97;;
48945;SDS011;34999;50.940;3.998;2022-11-15T13:33:21;1.50;;;1.50;;
48945;SDS011;34999;50.940;3.998;2022-11-15T13:35:57;2.90;;;1.80;;
48945;SDS011;34999;50.940;3.998;2022-11-15T13:38:28;4.83;;;2.30;;
48945;SDS011;34999;50.940;3.998;2022-11-15T13:40:59;2.73;;;2.53;;
48945;SDS011;34999;50.940;3.998;2022-11-15T13:43:38;3.33;;;2.10;;
48945;SDS011;34999;50.940;3.998;2022-11-15T13:46:09;3.40;;;2.27;;
48945;SDS011;34999;50.940;3.998;2022-11-15T13:48:40;3.47;;;3.27;;
48945;SDS011;34999;50.940;3.998;2022-11-15T13:51:16;2.23;;;2.03;;
48945;SDS011;34999;50.940;3.998;2022-11-15T13:53:49;3.27;;;1.80;;
48945;SDS011;34999;50.940;3.998;2022-11-15T13:56:22;2.27;;;2.07;;
48945;SDS011;34999;50.940;3.998;2022-11-15T13:58:52;2.27;;;2.17;;
48945;SDS011;34999;50.940;3.998;2022-11-15T14:01:21;2.37;;;2.17;;
48945;SDS011;34999;50.940;3.998;2022-11-15T14:03:52;2.93;;;2.10;;
48945;SDS011;34999;50.940;3.998;2022-11-15T14:06:25;3.43;;;2.33;;
48945;SDS011;34999;50.940;3.998;2022-11-15T14:09:00;2.57;;;2.37;;
48945;SDS011;34999;50.940;3.998;2022-11-15T14:11:51;4.20;;;2.20;;
48945;SDS011;34999;50.940;3.998;2022-11-15T14:14:21;7.97;;;2.47;;
48945;SDS011;34999;50.940;3.998;2022-11-15T14:16:51;3.50;;;2.00;;
48945;SDS011;34999;50.940;3.998;2022-11-15T14:19:36;2.97;;;2.40;;
48945;SDS011;34999;50.940;3.998;2022-11-15T14:22:18;2.23;;;2.10;;
48945;SDS011;34999;50.940;3.998;2022-11-15T14:25:04;5.73;;;2.40;;
48945;SDS011;34999;50.940;3.998;2022-11-15T14:27:35;3.50;;;2.00;;
48945;SDS011;34999;50.940;3.998;2022-11-15T14:30:03;2.10;;;2.00;;
48945;SDS011;34999;50.940;3.998;2022-11-15T14:32:37;5.17;;;2.83;;
48945;SDS011;34999;50.940;3.998;2022-11-15T14:35:11;4.20;;;2.30;;
48945;SDS011;34999;50.940;3.998;2022-11-15T14:37:43;2.37;;;2.17;;
48945;SDS011;34999;50.940;3.998;2022-11-15T14:40:13;3.20;;;2.97;;
48945;SDS011;34999;50.940;3.998;2022-11-15T14:42:44;6.23;;;2.70;;
48945;SDS011;34999;50.940;3.998;2022-11-15T14:45:14;4.73;;;2.90;;
48945;SDS011;34999;50.940;3.998;2022-11-15T14:47:43;6.47;;;4.23;;
48945;SDS011;34999;50.940;3.998;2022-11-15T14:50:12;4.30;;;3.30;;
48945;SDS011;34999;50.940;3.998;2022-11-15T14:52:46;6.23;;;3.43;;
48945;SDS011;34999;50.940;3.998;2022-11-15T14:55:16;2.90;;;2.67;;
48945;SDS011;34999;50.940;3.998;2022-11-15T14:57:48;4.20;;;3.73;;
48945;SDS011;34999;50.940;3.998;2022-11-15T15:00:16;6.57;;;3.40;;
48945;SDS011;34999;50.940;3.998;2022-11-15T15:02:46;4.33;;;3.93;;
48945;SDS011;34999;50.940;3.998;2022-11-15T15:05:16;6.57;;;5.93;;
48945;SDS011;34999;50.940;3.998;2022-11-15T15:07:48;4.17;;;3.87;;
48945;SDS011;34999;50.940;3.998;2022-11-15T15:10:18;7.33;;;3.90;;
48945;SDS011;34999;50.940;3.998;2022-11-15T15:13:08;6.47;;;4.93;;
48945;SDS011;34999;50.940;3.998;2022-11-15T15:15:43;10.80;;;3.90;;
48945;SDS011;34999;50.940;3.998;2022-11-15T15:18:11;7.50;;;4.20;;
48945;SDS011;34999;50.940;3.998;2022-11-15T15:20:40;4.70;;;4.23;;
48945;SDS011;34999;50.940;3.998;2022-11-15T15:23:15;7.40;;;4.30;;
48945;SDS011;34999;50.940;3.998;2022-11-15T15:25:44;6.03;;;5.43;;
48945;SDS011;34999;50.940;3.998;2022-11-15T15:28:13;5.13;;;4.10;;
48945;SDS011;34999;50.940;3.998;2022-11-15T15:30:41;6.20;;;4.43;;
48945;SDS011;34999;50.940;3.998;2022-11-15T15:33:10;9.83;;;5.23;;
48945;SDS011;34999;50.940;3.998;2022-11-15T15:35:39;6.40;;;5.73;;
48945;SDS011;34999;50.940;3.998;2022-11-15T15:38:08;6.70;;;4.77;;
48945;SDS011;34999;50.940;3.998;2022-11-15T15:40:39;9.77;;;4.60;;